sensor_id;sensor_type;location;lat;lon;timestamp;P1;durP1;ratioP1;P2;durP2;ratioP2
42246;SDS011;27913;42.722;23.268;2023-02-18T00:00:58;30.38;;;11.20;;
42246;SDS011;27913;42.722;23.268;2023-02-18T00:03:24;30.92;;;13.27;;
42246;SDS011;27913;42.722;23.268;2023-02-18T00:05:51;18.60;;;8.52;;
42246;SDS011;27913;42.722;23.268;2023-02-18T00:08:17;21.55;;;8.95;;
42246;SDS011;27913;42.722;23.268;2023-02-18T00:10:43;20.40;;;8.13;;
42246;SDS011;27913;42.722;23.268;2023-02-18T00:13:09;23.20;;;8.45;;
42246;SDS011;27913;42.722;23.268;2023-02-18T00:15:35;20.27;;;8.52;;
42246;SDS011;27913;42.722;23.268;2023-02-18T00:18:01;24.48;;;8.82;;
42246;SDS011;27913;42.722;23.268;2023-02-18T00:20:27;19.45;;;8.13;;
42246;SDS011;27913;42.722;23.268;2023-02-18T00:22:52;21.85;;;8.60;;
42246;SDS011;27913;42.722;23.268;2023-02-18T00:25:18;19.73;;;7.35;;
42246;SDS011;27913;42.722;23.268;2023-02-18T00:27:43;17.70;;;7.13;;
42246;SDS011;27913;42.722;23.268;2023-02-18T00:30:09;18.02;;;5.70;;
42246;SDS011;27913;42.722;23.268;2023-02-18T00:32:35;14.15;;;5.78;;
42246;SDS011;27913;42.722;23.268;2023-02-18T00:35:00;15.95;;;6.40;;
42246;SDS011;27913;42.722;23.268;2023-02-18T00:37:26;14.70;;;6.18;;
42246;SDS011;27913;42.722;23.268;2023-02-18T00:39:51;14.90;;;5.75;;
42246;SDS011;27913;42.722;23.268;2023-02-18T00:42:17;17.35;;;7.07;;
42246;SDS011;27913;42.722;23.268;2023-02-18T00:44:42;35.88;;;14.75;;
42246;SDS011;27913;42.722;23.268;2023-02-18T00:47:08;74.68;;;26.52;;
42246;SDS011;27913;42.722;23.268;2023-02-18T00:49:33;52.05;;;20.48;;
42246;SDS011;27913;42.722;23.268;2023-02-18T00:51:59;41.53;;;14.38;;
42246;SDS011;27913;42.722;23.268;2023-02-18T00:54:24;28.65;;;10.85;;
42246;SDS011;27913;42.722;23.268;2023-02-18T00:56:50;26.38;;;10.05;;
42246;SDS011;27913;42.722;23.268;2023-02-18T00:59:15;18.38;;;8.95;;
42246;SDS011;27913;42.722;23.268;2023-02-18T01:04:16;23.42;;;9.00;;
42246;SDS011;27913;42.722;23.268;2023-02-18T01:06:43;18.58;;;7.25;;
42246;SDS011;27913;42.722;23.268;2023-02-18T01:09:08;17.60;;;7.90;;
42246;SDS011;27913;42.722;23.268;2023-02-18T01:11:34;21.10;;;8.00;;
42246;SDS011;27913;42.722;23.268;2023-02-18T01:13:59;27.08;;;10.00;;
42246;SDS011;27913;42.722;23.268;2023-02-18T01:16:25;24.55;;;8.57;;
42246;SDS011;27913;42.722;23.268;2023-02-18T01:18:50;19.00;;;8.13;;
42246;SDS011;27913;42.722;23.268;2023-02-18T01:21:16;17.85;;;7.38;;
42246;SDS011;27913;42.722;23.268;2023-02-18T01:23:42;28.10;;;12.00;;
42246;SDS011;27913;42.722;23.268;2023-02-18T01:26:08;24.10;;;10.00;;
42246;SDS011;27913;42.722;23.268;2023-02-18T01:28:34;36.55;;;13.60;;
42246;SDS011;27913;42.722;23.268;2023-02-18T01:31:07;33.53;;;13.73;;
42246;SDS011;27913;42.722;23.268;2023-02-18T01:33:34;30.75;;;12.15;;
42246;SDS011;27913;42.722;23.268;2023-02-18T01:36:00;22.23;;;8.73;;
42246;SDS011;27913;42.722;23.268;2023-02-18T01:38:25;32.72;;;12.55;;
42246;SDS011;27913;42.722;23.268;2023-02-18T01:40:51;26.88;;;11.68;;
42246;SDS011;27913;42.722;23.268;2023-02-18T01:43:17;24.42;;;8.80;;
42246;SDS011;27913;42.722;23.268;2023-02-18T01:45:49;24.83;;;9.45;;
42246;SDS011;27913;42.722;23.268;2023-02-18T01:48:21;21.30;;;8.68;;
42246;SDS011;27913;42.722;23.268;2023-02-18T01:50:51;23.17;;;8.75;;
42246;SDS011;27913;42.722;23.268;2023-02-18T01:53:21;19.10;;;7.27;;
42246;SDS011;27913;42.722;23.268;2023-02-18T01:55:52;16.75;;;5.95;;
42246;SDS011;27913;42.722;23.268;2023-02-18T01:58:17;15.25;;;6.47;;
42246;SDS011;27913;42.722;23.268;2023-02-18T02:00:44;15.85;;;6.93;;
42246;SDS011;27913;42.722;23.268;2023-02-18T02:03:10;19.83;;;6.85;;
42246;SDS011;27913;42.722;23.268;2023-02-18T02:05:35;17.15;;;6.80;;
42246;SDS011;27913;42.722;23.268;2023-02-18T02:08:01;19.05;;;6.93;;
42246;SDS011;27913;42.722;23.268;2023-02-18T02:10:31;15.02;;;6.30;;
42246;SDS011;27913;42.722;23.268;2023-02-18T02:16:10;17.35;;;5.10;;
42246;SDS011;27913;42.722;23.268;2023-02-18T02:32:59;16.67;;;6.53;;
42246;SDS011;27913;42.722;23.268;2023-02-18T02:38:53;15.02;;;5.45;;
42246;SDS011;27913;42.722;23.268;2023-02-18T02:44:29;14.68;;;6.07;;
42246;SDS011;27913;42.722;23.268;2023-02-18T02:47:07;13.27;;;5.65;;
42246;SDS011;27913;42.722;23.268;2023-02-18T02:49:45;18.52;;;6.90;;
42246;SDS011;27913;42.722;23.268;2023-02-18T02:54:47;14.82;;;5.93;;
42246;SDS011;27913;42.722;23.268;2023-02-18T02:59:43;14.45;;;5.40;;
42246;SDS011;27913;42.722;23.268;2023-02-18T03:15:58;13.40;;;5.82;;
42246;SDS011;27913;42.722;23.268;2023-02-18T03:19:17;15.63;;;5.18;;
42246;SDS011;27913;42.722;23.268;2023-02-18T03:21:36;25.10;;;9.23;;
42246;SDS011;27913;42.722;23.268;2023-02-18T03:27:15;26.27;;;8.57;;
42246;SDS011;27913;42.722;23.268;2023-02-18T03:29:45;34.83;;;10.75;;
42246;SDS011;27913;42.722;23.268;2023-02-18T03:32:20;21.90;;;7.03;;
42246;SDS011;27913;42.722;23.268;2023-02-18T03:34:49;25.98;;;10.18;;
42246;SDS011;27913;42.722;23.268;2023-02-18T03:37:19;27.40;;;9.77;;
42246;SDS011;27913;42.722;23.268;2023-02-18T03:39:46;26.15;;;9.13;;
42246;SDS011;27913;42.722;23.268;2023-02-18T03:42:15;25.40;;;9.27;;
42246;SDS011;27913;42.722;23.268;2023-02-18T03:44:42;23.60;;;8.55;;
42246;SDS011;27913;42.722;23.268;2023-02-18T03:47:08;19.85;;;8.32;;
42246;SDS011;27913;42.722;23.268;2023-02-18T03:49:34;23.52;;;8.82;;
42246;SDS011;27913;42.722;23.268;2023-02-18T03:51:59;23.70;;;7.35;;
42246;SDS011;27913;42.722;23.268;2023-02-18T03:54:25;14.82;;;6.60;;
42246;SDS011;27913;42.722;23.268;2023-02-18T03:56:50;19.92;;;7.10;;
42246;SDS011;27913;42.722;23.268;2023-02-18T03:59:16;18.92;;;7.15;;
42246;SDS011;27913;42.722;23.268;2023-02-18T04:01:41;14.57;;;5.43;;
42246;SDS011;27913;42.722;23.268;2023-02-18T04:04:07;19.23;;;6.35;;
42246;SDS011;27913;42.722;23.268;2023-02-18T04:06:32;16.77;;;6.22;;
42246;SDS011;27913;42.722;23.268;2023-02-18T04:08:58;16.02;;;6.28;;
42246;SDS011;27913;42.722;23.268;2023-02-18T04:11:24;16.23;;;6.93;;
42246;SDS011;27913;42.722;23.268;2023-02-18T04:13:49;12.98;;;5.45;;
42246;SDS011;27913;42.722;23.268;2023-02-18T04:16:15;16.77;;;5.72;;
42246;SDS011;27913;42.722;23.268;2023-02-18T04:18:40;15.13;;;5.57;;
42246;SDS011;27913;42.722;23.268;2023-02-18T04:21:05;16.23;;;6.03;;
42246;SDS011;27913;42.722;23.268;2023-02-18T04:23:31;15.18;;;5.10;;
42246;SDS011;27913;42.722;23.268;2023-02-18T04:25:57;14.45;;;5.13;;
42246;SDS011;27913;42.722;23.268;2023-02-18T04:28:22;16.30;;;6.13;;
42246;SDS011;27913;42.722;23.268;2023-02-18T04:30:48;16.30;;;5.70;;
42246;SDS011;27913;42.722;23.268;2023-02-18T04:33:13;15.05;;;5.28;;
42246;SDS011;27913;42.722;23.268;2023-02-18T04:35:39;19.13;;;6.15;;
42246;SDS011;27913;42.722;23.268;2023-02-18T04:38:05;20.48;;;6.80;;
42246;SDS011;27913;42.722;23.268;2023-02-18T04:40:32;24.95;;;8.60;;
42246;SDS011;27913;42.722;23.268;2023-02-18T04:42:57;21.23;;;9.18;;
42246;SDS011;27913;42.722;23.268;2023-02-18T04:45:24;24.70;;;8.50;;
42246;SDS011;27913;42.722;23.268;2023-02-18T04:47:50;27.50;;;9.90;;
42246;SDS011;27913;42.722;23.268;2023-02-18T04:50:15;24.70;;;9.05;;
42246;SDS011;27913;42.722;23.268;2023-02-18T04:52:41;19.13;;;8.00;;
42246;SDS011;27913;42.722;23.268;2023-02-18T04:55:07;22.48;;;8.95;;
42246;SDS011;27913;42.722;23.268;2023-02-18T04:57:34;21.20;;;9.07;;
42246;SDS011;27913;42.722;23.268;2023-02-18T04:59:59;25.13;;;9.10;;
42246;SDS011;27913;42.722;23.268;2023-02-18T05:02:25;24.67;;;8.85;;
42246;SDS011;27913;42.722;23.268;2023-02-18T05:04:50;20.75;;;9.02;;
42246;SDS011;27913;42.722;23.268;2023-02-18T05:07:15;30.27;;;11.50;;
42246;SDS011;27913;42.722;23.268;2023-02-18T05:09:41;33.85;;;9.80;;
42246;SDS011;27913;42.722;23.268;2023-02-18T05:12:06;19.38;;;8.35;;
42246;SDS011;27913;42.722;23.268;2023-02-18T05:14:32;22.58;;;9.43;;
42246;SDS011;27913;42.722;23.268;2023-02-18T05:16:58;21.80;;;8.73;;
42246;SDS011;27913;42.722;23.268;2023-02-18T05:19:23;23.60;;;9.73;;
42246;SDS011;27913;42.722;23.268;2023-02-18T05:21:49;18.48;;;7.85;;
42246;SDS011;27913;42.722;23.268;2023-02-18T05:24:14;20.65;;;7.28;;
42246;SDS011;27913;42.722;23.268;2023-02-18T05:26:39;18.20;;;6.63;;
42246;SDS011;27913;42.722;23.268;2023-02-18T05:29:08;17.70;;;8.02;;
42246;SDS011;27913;42.722;23.268;2023-02-18T05:31:33;18.23;;;6.60;;
42246;SDS011;27913;42.722;23.268;2023-02-18T05:34:02;19.75;;;7.55;;
42246;SDS011;27913;42.722;23.268;2023-02-18T05:36:27;27.08;;;8.15;;
42246;SDS011;27913;42.722;23.268;2023-02-18T05:38:53;16.08;;;7.55;;
42246;SDS011;27913;42.722;23.268;2023-02-18T05:41:18;20.00;;;7.97;;
42246;SDS011;27913;42.722;23.268;2023-02-18T05:43:44;23.30;;;9.43;;
42246;SDS011;27913;42.722;23.268;2023-02-18T05:46:29;27.42;;;10.80;;
42246;SDS011;27913;42.722;23.268;2023-02-18T05:48:54;38.42;;;15.20;;
42246;SDS011;27913;42.722;23.268;2023-02-18T05:51:20;43.80;;;15.05;;
42246;SDS011;27913;42.722;23.268;2023-02-18T05:53:48;39.03;;;12.82;;
42246;SDS011;27913;42.722;23.268;2023-02-18T05:56:14;63.00;;;22.17;;
42246;SDS011;27913;42.722;23.268;2023-02-18T05:58:39;39.25;;;14.65;;
42246;SDS011;27913;42.722;23.268;2023-02-18T06:01:05;34.47;;;13.27;;
42246;SDS011;27913;42.722;23.268;2023-02-18T06:03:30;34.92;;;12.77;;
42246;SDS011;27913;42.722;23.268;2023-02-18T06:05:56;26.52;;;11.70;;
42246;SDS011;27913;42.722;23.268;2023-02-18T06:08:21;35.45;;;11.50;;
42246;SDS011;27913;42.722;23.268;2023-02-18T06:10:47;35.22;;;13.20;;
42246;SDS011;27913;42.722;23.268;2023-02-18T06:13:12;34.70;;;14.27;;
42246;SDS011;27913;42.722;23.268;2023-02-18T06:15:38;51.10;;;18.00;;
42246;SDS011;27913;42.722;23.268;2023-02-18T06:18:04;36.78;;;15.20;;
42246;SDS011;27913;42.722;23.268;2023-02-18T06:20:31;33.38;;;13.48;;
42246;SDS011;27913;42.722;23.268;2023-02-18T06:22:57;36.15;;;14.38;;
42246;SDS011;27913;42.722;23.268;2023-02-18T06:25:22;26.10;;;12.48;;
42246;SDS011;27913;42.722;23.268;2023-02-18T06:27:48;38.00;;;10.98;;
42246;SDS011;27913;42.722;23.268;2023-02-18T06:30:13;25.48;;;9.80;;
42246;SDS011;27913;42.722;23.268;2023-02-18T06:32:39;22.75;;;9.52;;
42246;SDS011;27913;42.722;23.268;2023-02-18T06:35:05;21.08;;;9.18;;
42246;SDS011;27913;42.722;23.268;2023-02-18T06:37:31;23.08;;;8.77;;
42246;SDS011;27913;42.722;23.268;2023-02-18T06:39:57;26.65;;;11.98;;
42246;SDS011;27913;42.722;23.268;2023-02-18T06:42:22;27.05;;;12.07;;
42246;SDS011;27913;42.722;23.268;2023-02-18T06:44:48;46.28;;;20.17;;
42246;SDS011;27913;42.722;23.268;2023-02-18T06:47:13;43.72;;;19.67;;
42246;SDS011;27913;42.722;23.268;2023-02-18T06:49:39;50.53;;;20.92;;
42246;SDS011;27913;42.722;23.268;2023-02-18T06:52:04;53.50;;;23.00;;
42246;SDS011;27913;42.722;23.268;2023-02-18T06:54:30;36.05;;;14.85;;
42246;SDS011;27913;42.722;23.268;2023-02-18T06:56:55;30.60;;;12.13;;
42246;SDS011;27913;42.722;23.268;2023-02-18T06:59:21;38.13;;;12.32;;
42246;SDS011;27913;42.722;23.268;2023-02-18T07:01:47;39.63;;;15.38;;
42246;SDS011;27913;42.722;23.268;2023-02-18T07:04:12;32.53;;;13.85;;
42246;SDS011;27913;42.722;23.268;2023-02-18T07:06:41;30.90;;;13.25;;
42246;SDS011;27913;42.722;23.268;2023-02-18T07:09:06;31.90;;;12.57;;
42246;SDS011;27913;42.722;23.268;2023-02-18T07:11:32;35.85;;;14.07;;
42246;SDS011;27913;42.722;23.268;2023-02-18T07:13:57;30.42;;;12.85;;
42246;SDS011;27913;42.722;23.268;2023-02-18T07:16:23;34.45;;;14.88;;
42246;SDS011;27913;42.722;23.268;2023-02-18T07:18:48;40.28;;;14.93;;
42246;SDS011;27913;42.722;23.268;2023-02-18T07:21:14;36.67;;;13.70;;
42246;SDS011;27913;42.722;23.268;2023-02-18T07:23:39;36.75;;;15.68;;
42246;SDS011;27913;42.722;23.268;2023-02-18T07:26:11;46.67;;;16.73;;
42246;SDS011;27913;42.722;23.268;2023-02-18T07:28:38;50.83;;;20.02;;
42246;SDS011;27913;42.722;23.268;2023-02-18T07:31:05;39.65;;;17.65;;
42246;SDS011;27913;42.722;23.268;2023-02-18T07:33:30;40.55;;;17.10;;
42246;SDS011;27913;42.722;23.268;2023-02-18T07:35:57;34.67;;;16.42;;
42246;SDS011;27913;42.722;23.268;2023-02-18T07:38:25;29.88;;;13.40;;
42246;SDS011;27913;42.722;23.268;2023-02-18T07:40:51;34.47;;;12.35;;
42246;SDS011;27913;42.722;23.268;2023-02-18T07:43:17;26.00;;;10.15;;
42246;SDS011;27913;42.722;23.268;2023-02-18T07:45:43;36.15;;;12.40;;
42246;SDS011;27913;42.722;23.268;2023-02-18T07:48:09;34.40;;;14.90;;
42246;SDS011;27913;42.722;23.268;2023-02-18T07:50:34;35.58;;;13.75;;
42246;SDS011;27913;42.722;23.268;2023-02-18T07:53:02;36.00;;;14.43;;
42246;SDS011;27913;42.722;23.268;2023-02-18T07:55:29;24.23;;;11.25;;
42246;SDS011;27913;42.722;23.268;2023-02-18T07:58:13;39.90;;;13.98;;
42246;SDS011;27913;42.722;23.268;2023-02-18T08:00:42;36.20;;;13.70;;
42246;SDS011;27913;42.722;23.268;2023-02-18T08:03:08;33.40;;;13.85;;
42246;SDS011;27913;42.722;23.268;2023-02-18T08:05:33;26.20;;;10.98;;
42246;SDS011;27913;42.722;23.268;2023-02-18T08:07:59;23.10;;;8.45;;
42246;SDS011;27913;42.722;23.268;2023-02-18T08:10:24;13.48;;;5.00;;
42246;SDS011;27913;42.722;23.268;2023-02-18T08:12:50;11.02;;;4.00;;
42246;SDS011;27913;42.722;23.268;2023-02-18T08:15:15;7.95;;;2.20;;
42246;SDS011;27913;42.722;23.268;2023-02-18T08:17:41;12.98;;;4.18;;
42246;SDS011;27913;42.722;23.268;2023-02-18T08:20:06;18.13;;;6.18;;
42246;SDS011;27913;42.722;23.268;2023-02-18T08:22:32;20.73;;;4.43;;
42246;SDS011;27913;42.722;23.268;2023-02-18T08:24:58;18.30;;;4.10;;
42246;SDS011;27913;42.722;23.268;2023-02-18T08:27:23;13.27;;;4.32;;
42246;SDS011;27913;42.722;23.268;2023-02-18T08:29:49;12.85;;;4.25;;
42246;SDS011;27913;42.722;23.268;2023-02-18T08:32:15;15.10;;;5.43;;
42246;SDS011;27913;42.722;23.268;2023-02-18T08:34:40;11.15;;;4.15;;
42246;SDS011;27913;42.722;23.268;2023-02-18T08:37:06;12.32;;;2.83;;
42246;SDS011;27913;42.722;23.268;2023-02-18T08:39:34;13.02;;;4.38;;
42246;SDS011;27913;42.722;23.268;2023-02-18T08:42:01;12.00;;;4.97;;
42246;SDS011;27913;42.722;23.268;2023-02-18T08:44:26;11.25;;;3.03;;
42246;SDS011;27913;42.722;23.268;2023-02-18T08:46:52;4.75;;;2.03;;
42246;SDS011;27913;42.722;23.268;2023-02-18T08:49:17;11.95;;;4.72;;
42246;SDS011;27913;42.722;23.268;2023-02-18T08:51:48;8.93;;;3.60;;
42246;SDS011;27913;42.722;23.268;2023-02-18T08:54:14;9.95;;;3.78;;
42246;SDS011;27913;42.722;23.268;2023-02-18T08:56:40;5.40;;;2.83;;
42246;SDS011;27913;42.722;23.268;2023-02-18T08:59:05;4.53;;;2.35;;
42246;SDS011;27913;42.722;23.268;2023-02-18T09:01:31;6.90;;;2.20;;
42246;SDS011;27913;42.722;23.268;2023-02-18T09:03:57;3.90;;;1.60;;
42246;SDS011;27913;42.722;23.268;2023-02-18T09:06:23;4.95;;;1.80;;
42246;SDS011;27913;42.722;23.268;2023-02-18T09:08:48;4.85;;;1.98;;
42246;SDS011;27913;42.722;23.268;2023-02-18T09:11:14;6.28;;;2.88;;
42246;SDS011;27913;42.722;23.268;2023-02-18T09:13:40;3.50;;;1.58;;
42246;SDS011;27913;42.722;23.268;2023-02-18T09:16:16;3.53;;;1.52;;
42246;SDS011;27913;42.722;23.268;2023-02-18T09:18:43;9.40;;;3.53;;
42246;SDS011;27913;42.722;23.268;2023-02-18T09:21:16;4.28;;;1.42;;
42246;SDS011;27913;42.722;23.268;2023-02-18T09:23:44;13.80;;;4.22;;
42246;SDS011;27913;42.722;23.268;2023-02-18T09:26:11;12.45;;;4.28;;
42246;SDS011;27913;42.722;23.268;2023-02-18T09:28:39;13.13;;;4.28;;
42246;SDS011;27913;42.722;23.268;2023-02-18T09:33:35;6.55;;;1.98;;
42246;SDS011;27913;42.722;23.268;2023-02-18T09:36:02;10.75;;;3.53;;
42246;SDS011;27913;42.722;23.268;2023-02-18T09:38:28;5.85;;;2.10;;
42246;SDS011;27913;42.722;23.268;2023-02-18T09:40:53;6.05;;;1.85;;
42246;SDS011;27913;42.722;23.268;2023-02-18T09:43:30;2.42;;;0.85;;
42246;SDS011;27913;42.722;23.268;2023-02-18T09:45:58;2.90;;;0.77;;
42246;SDS011;27913;42.722;23.268;2023-02-18T09:48:30;5.22;;;2.05;;
42246;SDS011;27913;42.722;23.268;2023-02-18T09:50:57;4.82;;;1.52;;
42246;SDS011;27913;42.722;23.268;2023-02-18T09:53:24;8.60;;;2.35;;
42246;SDS011;27913;42.722;23.268;2023-02-18T09:55:51;5.50;;;1.83;;
42246;SDS011;27913;42.722;23.268;2023-02-18T09:58:52;10.13;;;2.70;;
42246;SDS011;27913;42.722;23.268;2023-02-18T10:01:17;10.32;;;3.80;;
42246;SDS011;27913;42.722;23.268;2023-02-18T10:03:57;5.78;;;1.77;;
42246;SDS011;27913;42.722;23.268;2023-02-18T10:06:27;9.85;;;2.30;;
42246;SDS011;27913;42.722;23.268;2023-02-18T10:08:56;7.57;;;2.60;;
42246;SDS011;27913;42.722;23.268;2023-02-18T10:11:30;8.90;;;2.65;;
42246;SDS011;27913;42.722;23.268;2023-02-18T10:13:59;3.05;;;1.00;;
42246;SDS011;27913;42.722;23.268;2023-02-18T10:16:27;4.97;;;1.25;;
42246;SDS011;27913;42.722;23.268;2023-02-18T10:18:53;10.95;;;3.97;;
42246;SDS011;27913;42.722;23.268;2023-02-18T10:21:25;7.28;;;2.08;;
42246;SDS011;27913;42.722;23.268;2023-02-18T10:26:48;3.47;;;1.30;;
42246;SDS011;27913;42.722;23.268;2023-02-18T10:29:15;3.15;;;1.17;;
42246;SDS011;27913;42.722;23.268;2023-02-18T10:31:43;3.47;;;1.20;;
42246;SDS011;27913;42.722;23.268;2023-02-18T10:34:18;3.70;;;1.27;;
42246;SDS011;27913;42.722;23.268;2023-02-18T10:43:20;1.42;;;0.63;;
42246;SDS011;27913;42.722;23.268;2023-02-18T10:48:27;8.02;;;2.35;;
42246;SDS011;27913;42.722;23.268;2023-02-18T10:51:16;6.10;;;1.42;;
42246;SDS011;27913;42.722;23.268;2023-02-18T10:53:45;6.43;;;2.03;;
42246;SDS011;27913;42.722;23.268;2023-02-18T10:56:30;10.85;;;2.00;;
42246;SDS011;27913;42.722;23.268;2023-02-18T10:59:08;4.72;;;1.90;;
42246;SDS011;27913;42.722;23.268;2023-02-18T11:01:35;8.30;;;2.08;;
42246;SDS011;27913;42.722;23.268;2023-02-18T11:04:11;4.05;;;1.40;;
42246;SDS011;27913;42.722;23.268;2023-02-18T11:06:41;6.05;;;2.08;;
42246;SDS011;27913;42.722;23.268;2023-02-18T11:09:56;4.88;;;1.80;;
42246;SDS011;27913;42.722;23.268;2023-02-18T11:12:26;7.18;;;2.13;;
42246;SDS011;27913;42.722;23.268;2023-02-18T11:15:14;5.55;;;1.27;;
42246;SDS011;27913;42.722;23.268;2023-02-18T11:17:44;7.65;;;2.25;;
42246;SDS011;27913;42.722;23.268;2023-02-18T11:20:31;4.30;;;1.23;;
42246;SDS011;27913;42.722;23.268;2023-02-18T11:25:32;2.03;;;0.73;;
42246;SDS011;27913;42.722;23.268;2023-02-18T11:28:01;5.68;;;2.05;;
42246;SDS011;27913;42.722;23.268;2023-02-18T11:30:47;11.20;;;2.40;;
42246;SDS011;27913;42.722;23.268;2023-02-18T11:33:20;7.70;;;2.10;;
42246;SDS011;27913;42.722;23.268;2023-02-18T11:35:51;7.97;;;2.58;;
42246;SDS011;27913;42.722;23.268;2023-02-18T11:38:24;4.35;;;1.45;;
42246;SDS011;27913;42.722;23.268;2023-02-18T11:40:54;9.23;;;2.13;;
42246;SDS011;27913;42.722;23.268;2023-02-18T11:43:25;9.88;;;2.47;;
42246;SDS011;27913;42.722;23.268;2023-02-18T11:46:11;6.47;;;2.40;;
42246;SDS011;27913;42.722;23.268;2023-02-18T11:48:38;5.43;;;2.20;;
42246;SDS011;27913;42.722;23.268;2023-02-18T11:51:04;5.63;;;2.45;;
42246;SDS011;27913;42.722;23.268;2023-02-18T11:53:34;5.93;;;2.10;;
42246;SDS011;27913;42.722;23.268;2023-02-18T11:56:03;6.55;;;2.30;;
42246;SDS011;27913;42.722;23.268;2023-02-18T11:58:41;11.45;;;2.20;;
42246;SDS011;27913;42.722;23.268;2023-02-18T12:01:14;3.50;;;1.42;;
42246;SDS011;27913;42.722;23.268;2023-02-18T12:03:53;5.28;;;1.80;;
42246;SDS011;27913;42.722;23.268;2023-02-18T12:06:19;10.68;;;2.03;;
42246;SDS011;27913;42.722;23.268;2023-02-18T12:09:02;2.92;;;1.05;;
42246;SDS011;27913;42.722;23.268;2023-02-18T12:11:33;4.85;;;1.70;;
42246;SDS011;27913;42.722;23.268;2023-02-18T12:14:07;2.40;;;1.20;;
42246;SDS011;27913;42.722;23.268;2023-02-18T12:25:02;7.13;;;2.05;;
42246;SDS011;27913;42.722;23.268;2023-02-18T12:27:56;5.10;;;2.13;;
42246;SDS011;27913;42.722;23.268;2023-02-18T12:36:51;7.82;;;2.05;;
42246;SDS011;27913;42.722;23.268;2023-02-18T12:42:15;6.13;;;1.48;;
42246;SDS011;27913;42.722;23.268;2023-02-18T12:48:05;5.30;;;1.73;;
42246;SDS011;27913;42.722;23.268;2023-02-18T12:51:01;6.30;;;2.25;;
42246;SDS011;27913;42.722;23.268;2023-02-18T12:56:45;5.47;;;1.95;;
42246;SDS011;27913;42.722;23.268;2023-02-18T13:02:16;6.93;;;2.13;;
42246;SDS011;27913;42.722;23.268;2023-02-18T13:05:12;5.75;;;2.05;;
42246;SDS011;27913;42.722;23.268;2023-02-18T13:13:51;6.72;;;1.73;;
42246;SDS011;27913;42.722;23.268;2023-02-18T13:16:24;5.40;;;1.27;;
42246;SDS011;27913;42.722;23.268;2023-02-18T13:18:58;2.50;;;1.10;;
42246;SDS011;27913;42.722;23.268;2023-02-18T13:21:25;4.82;;;1.58;;
42246;SDS011;27913;42.722;23.268;2023-02-18T13:24:01;4.43;;;1.30;;
42246;SDS011;27913;42.722;23.268;2023-02-18T13:26:30;8.20;;;2.35;;
42246;SDS011;27913;42.722;23.268;2023-02-18T13:31:43;11.93;;;2.20;;
42246;SDS011;27913;42.722;23.268;2023-02-18T13:34:35;2.38;;;1.00;;
42246;SDS011;27913;42.722;23.268;2023-02-18T13:40:12;5.40;;;1.95;;
42246;SDS011;27913;42.722;23.268;2023-02-18T13:42:43;8.23;;;2.35;;
42246;SDS011;27913;42.722;23.268;2023-02-18T13:48:25;7.28;;;1.92;;
42246;SDS011;27913;42.722;23.268;2023-02-18T13:50:53;5.05;;;2.03;;
42246;SDS011;27913;42.722;23.268;2023-02-18T13:53:24;4.25;;;2.00;;
42246;SDS011;27913;42.722;23.268;2023-02-18T13:58:42;6.53;;;2.45;;
42246;SDS011;27913;42.722;23.268;2023-02-18T14:01:55;5.15;;;1.63;;
42246;SDS011;27913;42.722;23.268;2023-02-18T14:04:31;7.00;;;2.45;;
42246;SDS011;27913;42.722;23.268;2023-02-18T14:09:58;6.60;;;2.20;;
42246;SDS011;27913;42.722;23.268;2023-02-18T14:12:27;5.15;;;1.98;;
42246;SDS011;27913;42.722;23.268;2023-02-18T14:18:07;9.20;;;3.60;;
42246;SDS011;27913;42.722;23.268;2023-02-18T14:25:42;4.22;;;1.65;;
42246;SDS011;27913;42.722;23.268;2023-02-18T14:33:39;5.68;;;1.90;;
42246;SDS011;27913;42.722;23.268;2023-02-18T14:36:18;5.80;;;2.80;;
42246;SDS011;27913;42.722;23.268;2023-02-18T14:44:41;6.60;;;2.13;;
42246;SDS011;27913;42.722;23.268;2023-02-18T14:50:22;7.15;;;2.45;;
42246;SDS011;27913;42.722;23.268;2023-02-18T14:52:49;4.65;;;1.63;;
42246;SDS011;27913;42.722;23.268;2023-02-18T14:55:24;10.82;;;3.08;;
42246;SDS011;27913;42.722;23.268;2023-02-18T14:58:00;3.85;;;1.35;;
42246;SDS011;27913;42.722;23.268;2023-02-18T15:00:28;6.88;;;2.80;;
42246;SDS011;27913;42.722;23.268;2023-02-18T15:02:58;5.47;;;1.92;;
42246;SDS011;27913;42.722;23.268;2023-02-18T15:05:26;5.28;;;1.20;;
42246;SDS011;27913;42.722;23.268;2023-02-18T15:07:55;9.77;;;3.47;;
42246;SDS011;27913;42.722;23.268;2023-02-18T15:10:44;10.15;;;3.60;;
42246;SDS011;27913;42.722;23.268;2023-02-18T15:15:51;7.00;;;2.37;;
42246;SDS011;27913;42.722;23.268;2023-02-18T15:18:34;8.40;;;3.08;;
42246;SDS011;27913;42.722;23.268;2023-02-18T15:21:06;13.93;;;4.07;;
42246;SDS011;27913;42.722;23.268;2023-02-18T15:23:34;11.45;;;4.38;;
42246;SDS011;27913;42.722;23.268;2023-02-18T15:26:02;11.00;;;2.88;;
42246;SDS011;27913;42.722;23.268;2023-02-18T15:28:32;9.85;;;2.83;;
42246;SDS011;27913;42.722;23.268;2023-02-18T15:31:01;6.18;;;2.20;;
42246;SDS011;27913;42.722;23.268;2023-02-18T15:33:28;9.65;;;2.70;;
42246;SDS011;27913;42.722;23.268;2023-02-18T15:36:04;8.60;;;3.25;;
42246;SDS011;27913;42.722;23.268;2023-02-18T15:38:31;10.52;;;3.70;;
42246;SDS011;27913;42.722;23.268;2023-02-18T15:40:57;11.70;;;3.28;;
42246;SDS011;27913;42.722;23.268;2023-02-18T15:43:24;9.30;;;3.60;;
42246;SDS011;27913;42.722;23.268;2023-02-18T15:45:54;9.52;;;3.13;;
42246;SDS011;27913;42.722;23.268;2023-02-18T15:48:31;8.50;;;2.85;;
42246;SDS011;27913;42.722;23.268;2023-02-18T15:51:11;8.77;;;2.95;;
42246;SDS011;27913;42.722;23.268;2023-02-18T15:53:39;7.63;;;2.65;;
42246;SDS011;27913;42.722;23.268;2023-02-18T15:56:10;8.07;;;2.65;;
42246;SDS011;27913;42.722;23.268;2023-02-18T15:58:44;8.18;;;3.05;;
42246;SDS011;27913;42.722;23.268;2023-02-18T16:01:26;6.07;;;2.33;;
42246;SDS011;27913;42.722;23.268;2023-02-18T16:03:53;11.38;;;3.08;;
42246;SDS011;27913;42.722;23.268;2023-02-18T16:06:24;7.18;;;2.50;;
42246;SDS011;27913;42.722;23.268;2023-02-18T16:08:58;6.68;;;2.58;;
42246;SDS011;27913;42.722;23.268;2023-02-18T16:11:24;7.78;;;2.83;;
42246;SDS011;27913;42.722;23.268;2023-02-18T16:16:21;8.27;;;2.60;;
42246;SDS011;27913;42.722;23.268;2023-02-18T16:19:20;12.82;;;3.58;;
42246;SDS011;27913;42.722;23.268;2023-02-18T16:21:48;8.07;;;2.85;;
42246;SDS011;27913;42.722;23.268;2023-02-18T16:26:53;10.48;;;4.53;;
42246;SDS011;27913;42.722;23.268;2023-02-18T16:32:00;8.70;;;2.95;;
42246;SDS011;27913;42.722;23.268;2023-02-18T16:34:26;10.80;;;4.47;;
42246;SDS011;27913;42.722;23.268;2023-02-18T16:36:52;7.75;;;2.70;;
42246;SDS011;27913;42.722;23.268;2023-02-18T16:39:36;9.68;;;3.00;;
42246;SDS011;27913;42.722;23.268;2023-02-18T16:42:02;8.30;;;2.78;;
42246;SDS011;27913;42.722;23.268;2023-02-18T16:44:30;9.38;;;3.25;;
42246;SDS011;27913;42.722;23.268;2023-02-18T16:46:57;11.85;;;3.13;;
42246;SDS011;27913;42.722;23.268;2023-02-18T16:49:22;9.57;;;3.45;;
42246;SDS011;27913;42.722;23.268;2023-02-18T16:51:48;7.95;;;2.75;;
42246;SDS011;27913;42.722;23.268;2023-02-18T16:54:14;9.23;;;2.90;;
42246;SDS011;27913;42.722;23.268;2023-02-18T16:56:40;6.10;;;2.40;;
42246;SDS011;27913;42.722;23.268;2023-02-18T16:59:06;11.27;;;2.90;;
42246;SDS011;27913;42.722;23.268;2023-02-18T17:04:02;7.13;;;2.25;;